sensor_id;sensor_type;location;lat;lon;timestamp;P1;durP1;ratioP1;P2;durP2;ratioP2
67130;SDS011;54051;53.464;49.532;2022-07-17T00:01:42;16.88;;;12.77;;
67130;SDS011;54051;53.464;49.532;2022-07-17T00:04:08;15.80;;;12.60;;
67130;SDS011;54051;53.464;49.532;2022-07-17T00:09:48;17.15;;;13.13;;
67130;SDS011;54051;53.464;49.532;2022-07-17T00:14:44;17.42;;;12.80;;
67130;SDS011;54051;53.464;49.532;2022-07-17T00:17:10;18.80;;;13.15;;
67130;SDS011;54051;53.464;49.532;2022-07-17T00:19:36;16.42;;;12.60;;
67130;SDS011;54051;53.464;49.532;2022-07-17T00:22:02;17.55;;;12.82;;
67130;SDS011;54051;53.464;49.532;2022-07-17T00:24:29;16.98;;;13.13;;
67130;SDS011;54051;53.464;49.532;2022-07-17T00:29:31;17.80;;;13.43;;
67130;SDS011;54051;53.464;49.532;2022-07-17T00:31:57;16.08;;;13.52;;
67130;SDS011;54051;53.464;49.532;2022-07-17T00:36:59;17.08;;;12.65;;
67130;SDS011;54051;53.464;49.532;2022-07-17T00:39:25;17.55;;;12.93;;
67130;SDS011;54051;53.464;49.532;2022-07-17T00:41:51;16.10;;;12.45;;
67130;SDS011;54051;53.464;49.532;2022-07-17T00:54:59;16.63;;;12.95;;
67130;SDS011;54051;53.464;49.532;2022-07-17T00:57:25;19.33;;;13.50;;
67130;SDS011;54051;53.464;49.532;2022-07-17T01:02:24;15.30;;;12.60;;
67130;SDS011;54051;53.464;49.532;2022-07-17T01:04:50;18.67;;;13.25;;
67130;SDS011;54051;53.464;49.532;2022-07-17T01:18:33;16.77;;;12.43;;
67130;SDS011;54051;53.464;49.532;2022-07-17T01:23:32;15.60;;;12.27;;
67130;SDS011;54051;53.464;49.532;2022-07-17T01:25:58;16.45;;;12.43;;
67130;SDS011;54051;53.464;49.532;2022-07-17T01:28:28;16.90;;;12.55;;
67130;SDS011;54051;53.464;49.532;2022-07-17T01:35:58;16.25;;;12.05;;
67130;SDS011;54051;53.464;49.532;2022-07-17T01:49:26;15.35;;;10.45;;
67130;SDS011;54051;53.464;49.532;2022-07-17T02:00:40;14.48;;;10.38;;
67130;SDS011;54051;53.464;49.532;2022-07-17T02:13:58;13.38;;;10.13;;
67130;SDS011;54051;53.464;49.532;2022-07-17T02:19:04;14.15;;;9.57;;
67130;SDS011;54051;53.464;49.532;2022-07-17T02:26:55;14.00;;;10.10;;
67130;SDS011;54051;53.464;49.532;2022-07-17T02:29:25;15.00;;;10.07;;
67130;SDS011;54051;53.464;49.532;2022-07-17T02:51:01;13.15;;;8.88;;
67130;SDS011;54051;53.464;49.532;2022-07-17T03:04:08;15.33;;;9.50;;
67130;SDS011;54051;53.464;49.532;2022-07-17T03:06:38;12.45;;;8.70;;
67130;SDS011;54051;53.464;49.532;2022-07-17T03:27:58;11.45;;;8.40;;
67130;SDS011;54051;53.464;49.532;2022-07-17T03:30:28;12.00;;;8.38;;
67130;SDS011;54051;53.464;49.532;2022-07-17T04:03:47;10.45;;;7.47;;
67130;SDS011;54051;53.464;49.532;2022-07-17T04:12:11;9.50;;;7.40;;
67130;SDS011;54051;53.464;49.532;2022-07-17T04:17:26;9.48;;;7.47;;
67130;SDS011;54051;53.464;49.532;2022-07-17T04:19:56;8.50;;;7.03;;
67130;SDS011;54051;53.464;49.532;2022-07-17T04:43:50;11.13;;;7.78;;
67130;SDS011;54051;53.464;49.532;2022-07-17T04:46:17;9.75;;;6.70;;
67130;SDS011;54051;53.464;49.532;2022-07-17T05:02:23;8.68;;;6.05;;
67130;SDS011;54051;53.464;49.532;2022-07-17T05:10:34;9.55;;;5.30;;
67130;SDS011;54051;53.464;49.532;2022-07-17T05:13:01;10.93;;;5.85;;
67130;SDS011;54051;53.464;49.532;2022-07-17T05:18:09;8.80;;;7.10;;
67130;SDS011;54051;53.464;49.532;2022-07-17T05:23:20;10.35;;;6.28;;
67130;SDS011;54051;53.464;49.532;2022-07-17T05:40:09;8.95;;;4.80;;
67130;SDS011;54051;53.464;49.532;2022-07-17T06:07:11;7.28;;;5.68;;
67130;SDS011;54051;53.464;49.532;2022-07-17T06:23:42;7.32;;;4.70;;
67130;SDS011;54051;53.464;49.532;2022-07-17T06:31:38;6.80;;;5.30;;
67130;SDS011;54051;53.464;49.532;2022-07-17T06:36:41;6.45;;;4.78;;
67130;SDS011;54051;53.464;49.532;2022-07-17T06:42:07;6.70;;;5.03;;
67130;SDS011;54051;53.464;49.532;2022-07-17T06:50:13;7.18;;;5.43;;
67130;SDS011;54051;53.464;49.532;2022-07-17T07:04:04;7.22;;;5.13;;
67130;SDS011;54051;53.464;49.532;2022-07-17T07:06:32;6.28;;;4.93;;
67130;SDS011;54051;53.464;49.532;2022-07-17T07:12:00;8.80;;;5.00;;
67130;SDS011;54051;53.464;49.532;2022-07-17T07:22:49;6.50;;;5.32;;
67130;SDS011;54051;53.464;49.532;2022-07-17T07:25:15;6.43;;;4.60;;
67130;SDS011;54051;53.464;49.532;2022-07-17T07:30:23;7.60;;;3.90;;
67130;SDS011;54051;53.464;49.532;2022-07-17T07:46:57;6.53;;;3.30;;
67130;SDS011;54051;53.464;49.532;2022-07-17T07:49:26;6.18;;;3.58;;
67130;SDS011;54051;53.464;49.532;2022-07-17T07:54:40;5.68;;;3.50;;
67130;SDS011;54051;53.464;49.532;2022-07-17T07:57:06;5.57;;;3.30;;
67130;SDS011;54051;53.464;49.532;2022-07-17T07:59:33;6.70;;;3.60;;
67130;SDS011;54051;53.464;49.532;2022-07-17T08:02:00;5.90;;;3.50;;
67130;SDS011;54051;53.464;49.532;2022-07-17T08:04:27;7.07;;;3.30;;
67130;SDS011;54051;53.464;49.532;2022-07-17T08:09:30;5.18;;;3.60;;
67130;SDS011;54051;53.464;49.532;2022-07-17T08:26:03;6.22;;;3.20;;
67130;SDS011;54051;53.464;49.532;2022-07-17T09:04:57;5.38;;;3.17;;
67130;SDS011;54051;53.464;49.532;2022-07-17T09:18:43;7.93;;;3.00;;
67130;SDS011;54051;53.464;49.532;2022-07-17T09:26:32;5.68;;;2.70;;
67130;SDS011;54051;53.464;49.532;2022-07-17T09:29:03;4.65;;;2.63;;
67130;SDS011;54051;53.464;49.532;2022-07-17T09:31:30;5.43;;;2.63;;
67130;SDS011;54051;53.464;49.532;2022-07-17T09:33:58;6.13;;;3.05;;
67130;SDS011;54051;53.464;49.532;2022-07-17T09:36:25;5.65;;;2.85;;
67130;SDS011;54051;53.464;49.532;2022-07-17T09:41:27;5.60;;;3.17;;
67130;SDS011;54051;53.464;49.532;2022-07-17T09:43:59;6.03;;;3.70;;
67130;SDS011;54051;53.464;49.532;2022-07-17T09:46:30;7.07;;;3.42;;
67130;SDS011;54051;53.464;49.532;2022-07-17T09:48:59;5.53;;;3.20;;
67130;SDS011;54051;53.464;49.532;2022-07-17T09:51:29;5.05;;;3.20;;
67130;SDS011;54051;53.464;49.532;2022-07-17T09:53:58;4.95;;;2.97;;
67130;SDS011;54051;53.464;49.532;2022-07-17T09:56:29;4.40;;;3.00;;
67130;SDS011;54051;53.464;49.532;2022-07-17T09:59:09;5.40;;;2.95;;
67130;SDS011;54051;53.464;49.532;2022-07-17T10:01:41;6.55;;;2.80;;
67130;SDS011;54051;53.464;49.532;2022-07-17T10:04:08;6.53;;;3.10;;
67130;SDS011;54051;53.464;49.532;2022-07-17T10:18:13;6.10;;;2.80;;
67130;SDS011;54051;53.464;49.532;2022-07-17T10:26:10;5.13;;;2.40;;
67130;SDS011;54051;53.464;49.532;2022-07-17T10:28:38;5.80;;;3.22;;
67130;SDS011;54051;53.464;49.532;2022-07-17T10:31:05;7.40;;;3.00;;
67130;SDS011;54051;53.464;49.532;2022-07-17T10:35:57;5.00;;;2.90;;
67130;SDS011;54051;53.464;49.532;2022-07-17T10:38:26;5.05;;;2.65;;
67130;SDS011;54051;53.464;49.532;2022-07-17T10:41:02;6.35;;;2.92;;
67130;SDS011;54051;53.464;49.532;2022-07-17T10:43:43;5.05;;;2.78;;
67130;SDS011;54051;53.464;49.532;2022-07-17T10:46:10;5.82;;;3.20;;
67130;SDS011;54051;53.464;49.532;2022-07-17T10:51:05;6.88;;;2.97;;
67130;SDS011;54051;53.464;49.532;2022-07-17T10:53:32;5.10;;;3.13;;
67130;SDS011;54051;53.464;49.532;2022-07-17T10:56:02;6.70;;;3.30;;
67130;SDS011;54051;53.464;49.532;2022-07-17T10:58:33;5.88;;;2.90;;
67130;SDS011;54051;53.464;49.532;2022-07-17T11:01:06;5.10;;;3.08;;
67130;SDS011;54051;53.464;49.532;2022-07-17T11:03:43;4.88;;;2.60;;
67130;SDS011;54051;53.464;49.532;2022-07-17T11:08:59;5.07;;;2.83;;
67130;SDS011;54051;53.464;49.532;2022-07-17T11:14:16;4.47;;;2.90;;
67130;SDS011;54051;53.464;49.532;2022-07-17T11:16:48;6.63;;;3.30;;
67130;SDS011;54051;53.464;49.532;2022-07-17T11:19:25;5.05;;;3.28;;
67130;SDS011;54051;53.464;49.532;2022-07-17T11:22:05;5.60;;;3.28;;
67130;SDS011;54051;53.464;49.532;2022-07-17T11:24:43;5.45;;;3.10;;
67130;SDS011;54051;53.464;49.532;2022-07-17T11:27:12;5.57;;;3.40;;
67130;SDS011;54051;53.464;49.532;2022-07-17T11:29:47;4.72;;;3.00;;
67130;SDS011;54051;53.464;49.532;2022-07-17T11:32:14;5.65;;;3.13;;
67130;SDS011;54051;53.464;49.532;2022-07-17T11:34:41;5.10;;;3.20;;
67130;SDS011;54051;53.464;49.532;2022-07-17T11:37:08;5.53;;;3.10;;
67130;SDS011;54051;53.464;49.532;2022-07-17T11:39:39;5.40;;;3.53;;
67130;SDS011;54051;53.464;49.532;2022-07-17T11:42:11;5.22;;;3.10;;
67130;SDS011;54051;53.464;49.532;2022-07-17T11:44:39;5.00;;;2.90;;
67130;SDS011;54051;53.464;49.532;2022-07-17T11:47:06;5.40;;;3.10;;
67130;SDS011;54051;53.464;49.532;2022-07-17T11:49:33;5.30;;;3.35;;
67130;SDS011;54051;53.464;49.532;2022-07-17T11:54:44;5.63;;;3.50;;
67130;SDS011;54051;53.464;49.532;2022-07-17T11:57:11;6.07;;;3.50;;
67130;SDS011;54051;53.464;49.532;2022-07-17T11:59:40;5.18;;;2.95;;
67130;SDS011;54051;53.464;49.532;2022-07-17T12:02:07;4.43;;;2.88;;
67130;SDS011;54051;53.464;49.532;2022-07-17T12:07:16;6.15;;;3.47;;
67130;SDS011;54051;53.464;49.532;2022-07-17T12:09:45;4.45;;;2.70;;
67130;SDS011;54051;53.464;49.532;2022-07-17T12:12:21;5.15;;;3.10;;
67130;SDS011;54051;53.464;49.532;2022-07-17T12:14:51;5.60;;;3.30;;
67130;SDS011;54051;53.464;49.532;2022-07-17T12:17:24;4.97;;;3.05;;
67130;SDS011;54051;53.464;49.532;2022-07-17T12:19:51;6.68;;;3.72;;
67130;SDS011;54051;53.464;49.532;2022-07-17T12:22:17;9.88;;;4.10;;
67130;SDS011;54051;53.464;49.532;2022-07-17T12:24:45;6.18;;;3.90;;
67130;SDS011;54051;53.464;49.532;2022-07-17T12:27:15;5.50;;;3.53;;
67130;SDS011;54051;53.464;49.532;2022-07-17T12:29:43;6.15;;;3.58;;
67130;SDS011;54051;53.464;49.532;2022-07-17T12:32:10;7.30;;;3.95;;
67130;SDS011;54051;53.464;49.532;2022-07-17T12:34:39;8.52;;;4.22;;
67130;SDS011;54051;53.464;49.532;2022-07-17T12:37:19;8.55;;;3.80;;
67130;SDS011;54051;53.464;49.532;2022-07-17T12:39:47;7.80;;;3.90;;
67130;SDS011;54051;53.464;49.532;2022-07-17T12:42:14;6.85;;;4.50;;
67130;SDS011;54051;53.464;49.532;2022-07-17T12:44:41;7.43;;;4.15;;
67130;SDS011;54051;53.464;49.532;2022-07-17T12:47:08;7.13;;;3.67;;
67130;SDS011;54051;53.464;49.532;2022-07-17T12:49:34;8.02;;;4.30;;
67130;SDS011;54051;53.464;49.532;2022-07-17T12:54:26;6.68;;;3.88;;
67130;SDS011;54051;53.464;49.532;2022-07-17T12:59:18;9.85;;;4.05;;
67130;SDS011;54051;53.464;49.532;2022-07-17T13:01:45;8.32;;;4.00;;
67130;SDS011;54051;53.464;49.532;2022-07-17T13:04:11;8.55;;;3.55;;
67130;SDS011;54051;53.464;49.532;2022-07-17T13:06:38;8.90;;;4.15;;
67130;SDS011;54051;53.464;49.532;2022-07-17T13:11:30;7.10;;;3.92;;
67130;SDS011;54051;53.464;49.532;2022-07-17T13:13:56;7.88;;;4.80;;
67130;SDS011;54051;53.464;49.532;2022-07-17T13:16:22;9.02;;;3.63;;
67130;SDS011;54051;53.464;49.532;2022-07-17T13:18:49;7.53;;;4.15;;
67130;SDS011;54051;53.464;49.532;2022-07-17T13:23:41;6.93;;;4.03;;
67130;SDS011;54051;53.464;49.532;2022-07-17T13:26:07;8.70;;;4.30;;
67130;SDS011;54051;53.464;49.532;2022-07-17T13:28:33;8.02;;;4.30;;
67130;SDS011;54051;53.464;49.532;2022-07-17T13:30:59;6.78;;;3.60;;
67130;SDS011;54051;53.464;49.532;2022-07-17T13:33:26;5.90;;;3.63;;
67130;SDS011;54051;53.464;49.532;2022-07-17T13:35:52;8.68;;;4.00;;
67130;SDS011;54051;53.464;49.532;2022-07-17T13:38:20;8.30;;;4.38;;
67130;SDS011;54051;53.464;49.532;2022-07-17T13:40:46;6.07;;;3.80;;
67130;SDS011;54051;53.464;49.532;2022-07-17T13:43:13;6.50;;;3.53;;
67130;SDS011;54051;53.464;49.532;2022-07-17T13:45:39;6.95;;;3.78;;
67130;SDS011;54051;53.464;49.532;2022-07-17T13:48:05;6.18;;;3.80;;
67130;SDS011;54051;53.464;49.532;2022-07-17T13:50:31;7.35;;;4.07;;
67130;SDS011;54051;53.464;49.532;2022-07-17T13:55:25;6.82;;;3.78;;
67130;SDS011;54051;53.464;49.532;2022-07-17T14:00:17;5.47;;;3.22;;
67130;SDS011;54051;53.464;49.532;2022-07-17T14:05:09;5.63;;;3.40;;
67130;SDS011;54051;53.464;49.532;2022-07-17T14:07:35;5.80;;;3.70;;
67130;SDS011;54051;53.464;49.532;2022-07-17T14:10:02;6.47;;;4.00;;
67130;SDS011;54051;53.464;49.532;2022-07-17T14:12:29;9.10;;;4.45;;
67130;SDS011;54051;53.464;49.532;2022-07-17T14:14:55;8.07;;;4.72;;
67130;SDS011;54051;53.464;49.532;2022-07-17T14:19:47;8.25;;;5.20;;
67130;SDS011;54051;53.464;49.532;2022-07-17T14:22:13;8.90;;;5.72;;
67130;SDS011;54051;53.464;49.532;2022-07-17T14:27:05;7.45;;;4.20;;
67130;SDS011;54051;53.464;49.532;2022-07-17T14:29:31;6.10;;;4.25;;
67130;SDS011;54051;53.464;49.532;2022-07-17T14:31:57;8.45;;;5.35;;
67130;SDS011;54051;53.464;49.532;2022-07-17T14:36:49;7.55;;;5.43;;
67130;SDS011;54051;53.464;49.532;2022-07-17T14:39:15;7.40;;;4.82;;
67130;SDS011;54051;53.464;49.532;2022-07-17T14:41:42;10.65;;;6.32;;
67130;SDS011;54051;53.464;49.532;2022-07-17T14:44:10;8.88;;;5.72;;
67130;SDS011;54051;53.464;49.532;2022-07-17T14:46:37;14.75;;;8.50;;
67130;SDS011;54051;53.464;49.532;2022-07-17T14:49:03;13.93;;;7.88;;
67130;SDS011;54051;53.464;49.532;2022-07-17T14:51:29;11.63;;;6.97;;
67130;SDS011;54051;53.464;49.532;2022-07-17T14:56:21;9.02;;;6.00;;
67130;SDS011;54051;53.464;49.532;2022-07-17T14:58:47;8.65;;;5.40;;
67130;SDS011;54051;53.464;49.532;2022-07-17T15:01:13;8.07;;;4.57;;
67130;SDS011;54051;53.464;49.532;2022-07-17T15:06:05;6.47;;;3.85;;
67130;SDS011;54051;53.464;49.532;2022-07-17T15:10:58;6.78;;;4.10;;
67130;SDS011;54051;53.464;49.532;2022-07-17T15:13:24;5.15;;;3.85;;
67130;SDS011;54051;53.464;49.532;2022-07-17T15:15:50;6.32;;;4.00;;
67130;SDS011;54051;53.464;49.532;2022-07-17T15:18:16;6.68;;;4.10;;
67130;SDS011;54051;53.464;49.532;2022-07-17T15:20:42;6.90;;;3.90;;
67130;SDS011;54051;53.464;49.532;2022-07-17T15:23:08;5.78;;;3.75;;
67130;SDS011;54051;53.464;49.532;2022-07-17T15:25:34;5.75;;;3.80;;
67130;SDS011;54051;53.464;49.532;2022-07-17T15:28:00;7.13;;;4.00;;
67130;SDS011;54051;53.464;49.532;2022-07-17T15:30:26;8.90;;;3.80;;
67130;SDS011;54051;53.464;49.532;2022-07-17T15:32:52;5.68;;;3.80;;
67130;SDS011;54051;53.464;49.532;2022-07-17T15:35:18;7.05;;;4.03;;
67130;SDS011;54051;53.464;49.532;2022-07-17T15:37:44;6.90;;;3.92;;
67130;SDS011;54051;53.464;49.532;2022-07-17T15:40:10;7.15;;;3.90;;
67130;SDS011;54051;53.464;49.532;2022-07-17T15:45:03;6.13;;;3.97;;
67130;SDS011;54051;53.464;49.532;2022-07-17T15:47:29;6.95;;;3.80;;
67130;SDS011;54051;53.464;49.532;2022-07-17T15:49:55;7.03;;;3.78;;
67130;SDS011;54051;53.464;49.532;2022-07-17T15:52:21;6.65;;;4.00;;
67130;SDS011;54051;53.464;49.532;2022-07-17T15:54:47;6.78;;;4.03;;
67130;SDS011;54051;53.464;49.532;2022-07-17T15:57:13;5.88;;;3.60;;
67130;SDS011;54051;53.464;49.532;2022-07-17T15:59:39;5.93;;;4.00;;
67130;SDS011;54051;53.464;49.532;2022-07-17T16:02:06;8.00;;;3.72;;
67130;SDS011;54051;53.464;49.532;2022-07-17T16:04:32;5.65;;;3.90;;
67130;SDS011;54051;53.464;49.532;2022-07-17T16:06:57;6.60;;;4.20;;
67130;SDS011;54051;53.464;49.532;2022-07-17T16:09:23;6.20;;;4.13;;
67130;SDS011;54051;53.464;49.532;2022-07-17T16:11:50;8.00;;;5.57;;
67130;SDS011;54051;53.464;49.532;2022-07-17T16:14:16;9.80;;;4.80;;
67130;SDS011;54051;53.464;49.532;2022-07-17T16:16:42;6.55;;;4.30;;
67130;SDS011;54051;53.464;49.532;2022-07-17T16:19:08;8.02;;;4.20;;
67130;SDS011;54051;53.464;49.532;2022-07-17T16:21:34;8.05;;;4.22;;
67130;SDS011;54051;53.464;49.532;2022-07-17T16:24:00;6.85;;;4.68;;
67130;SDS011;54051;53.464;49.532;2022-07-17T16:26:27;7.10;;;4.30;;
67130;SDS011;54051;53.464;49.532;2022-07-17T16:28:56;7.07;;;4.32;;
67130;SDS011;54051;53.464;49.532;2022-07-17T16:31:23;6.97;;;4.50;;
67130;SDS011;54051;53.464;49.532;2022-07-17T16:33:49;8.63;;;4.65;;
67130;SDS011;54051;53.464;49.532;2022-07-17T16:36:15;6.57;;;4.70;;
67130;SDS011;54051;53.464;49.532;2022-07-17T16:38:41;30.52;;;14.20;;
67130;SDS011;54051;53.464;49.532;2022-07-17T16:41:07;36.25;;;15.63;;
67130;SDS011;54051;53.464;49.532;2022-07-17T16:43:35;30.88;;;13.30;;
67130;SDS011;54051;53.464;49.532;2022-07-17T16:46:01;33.97;;;12.85;;
67130;SDS011;54051;53.464;49.532;2022-07-17T16:48:29;22.23;;;10.70;;
67130;SDS011;54051;53.464;49.532;2022-07-17T16:50:56;20.42;;;9.73;;
67130;SDS011;54051;53.464;49.532;2022-07-17T16:53:22;15.85;;;8.38;;
67130;SDS011;54051;53.464;49.532;2022-07-17T16:55:48;14.48;;;8.52;;
67130;SDS011;54051;53.464;49.532;2022-07-17T16:58:14;14.25;;;8.45;;
67130;SDS011;54051;53.464;49.532;2022-07-17T17:00:40;15.63;;;9.55;;
67130;SDS011;54051;53.464;49.532;2022-07-17T17:03:07;20.15;;;10.23;;
67130;SDS011;54051;53.464;49.532;2022-07-17T17:05:33;20.95;;;10.48;;
67130;SDS011;54051;53.464;49.532;2022-07-17T17:08:01;21.67;;;11.00;;
67130;SDS011;54051;53.464;49.532;2022-07-17T17:10:28;18.27;;;10.55;;
67130;SDS011;54051;53.464;49.532;2022-07-17T17:12:55;15.60;;;9.90;;
67130;SDS011;54051;53.464;49.532;2022-07-17T17:15:23;16.05;;;9.48;;
67130;SDS011;54051;53.464;49.532;2022-07-17T17:17:49;13.57;;;9.13;;
67130;SDS011;54051;53.464;49.532;2022-07-17T17:20:15;12.05;;;8.35;;
67130;SDS011;54051;53.464;49.532;2022-07-17T17:22:41;14.05;;;9.25;;
67130;SDS011;54051;53.464;49.532;2022-07-17T17:25:12;18.35;;;9.75;;
67130;SDS011;54051;53.464;49.532;2022-07-17T17:30:05;14.50;;;9.10;;
67130;SDS011;54051;53.464;49.532;2022-07-17T17:32:32;14.70;;;9.55;;
67130;SDS011;54051;53.464;49.532;2022-07-17T17:34:58;12.32;;;8.32;;
67130;SDS011;54051;53.464;49.532;2022-07-17T17:37:24;13.77;;;8.80;;
67130;SDS011;54051;53.464;49.532;2022-07-17T17:42:30;14.95;;;8.25;;
67130;SDS011;54051;53.464;49.532;2022-07-17T17:47:27;17.35;;;9.32;;
67130;SDS011;54051;53.464;49.532;2022-07-17T17:55:20;13.38;;;8.80;;
67130;SDS011;54051;53.464;49.532;2022-07-17T17:57:46;12.65;;;8.02;;
67130;SDS011;54051;53.464;49.532;2022-07-17T18:00:12;16.00;;;8.20;;
67130;SDS011;54051;53.464;49.532;2022-07-17T18:08:15;12.82;;;7.70;;
67130;SDS011;54051;53.464;49.532;2022-07-17T18:24:15;19.52;;;11.88;;
67130;SDS011;54051;53.464;49.532;2022-07-17T18:26:41;16.55;;;10.52;;
67130;SDS011;54051;53.464;49.532;2022-07-17T18:47:58;15.60;;;10.35;;
67130;SDS011;54051;53.464;49.532;2022-07-17T18:50:25;13.25;;;9.50;;
67130;SDS011;54051;53.464;49.532;2022-07-17T18:52:55;13.90;;;9.30;;
67130;SDS011;54051;53.464;49.532;2022-07-17T18:55:22;12.55;;;9.13;;
67130;SDS011;54051;53.464;49.532;2022-07-17T18:57:49;11.50;;;8.60;;
67130;SDS011;54051;53.464;49.532;2022-07-17T19:00:15;12.75;;;8.98;;
67130;SDS011;54051;53.464;49.532;2022-07-17T19:02:41;15.68;;;9.90;;
67130;SDS011;54051;53.464;49.532;2022-07-17T19:05:07;14.52;;;9.90;;
67130;SDS011;54051;53.464;49.532;2022-07-17T19:07:34;16.27;;;10.07;;
67130;SDS011;54051;53.464;49.532;2022-07-17T19:10:00;19.70;;;11.88;;
67130;SDS011;54051;53.464;49.532;2022-07-17T19:12:26;16.90;;;10.93;;
67130;SDS011;54051;53.464;49.532;2022-07-17T19:14:53;13.85;;;10.10;;
67130;SDS011;54051;53.464;49.532;2022-07-17T19:17:19;14.05;;;9.80;;
67130;SDS011;54051;53.464;49.532;2022-07-17T19:19:45;15.52;;;9.57;;
67130;SDS011;54051;53.464;49.532;2022-07-17T19:22:11;14.25;;;9.10;;
67130;SDS011;54051;53.464;49.532;2022-07-17T19:24:38;12.27;;;9.20;;
67130;SDS011;54051;53.464;49.532;2022-07-17T19:27:04;12.95;;;9.30;;
67130;SDS011;54051;53.464;49.532;2022-07-17T19:29:30;12.88;;;9.15;;
67130;SDS011;54051;53.464;49.532;2022-07-17T19:31:56;11.80;;;9.00;;
67130;SDS011;54051;53.464;49.532;2022-07-17T19:34:22;13.15;;;9.77;;
67130;SDS011;54051;53.464;49.532;2022-07-17T19:36:48;12.68;;;9.40;;
67130;SDS011;54051;53.464;49.532;2022-07-17T19:39:14;11.98;;;9.02;;
67130;SDS011;54051;53.464;49.532;2022-07-17T19:41:40;12.95;;;9.50;;
67130;SDS011;54051;53.464;49.532;2022-07-17T19:44:06;11.52;;;8.07;;
67130;SDS011;54051;53.464;49.532;2022-07-17T19:46:33;10.25;;;5.90;;
67130;SDS011;54051;53.464;49.532;2022-07-17T19:48:59;10.40;;;6.68;;
67130;SDS011;54051;53.464;49.532;2022-07-17T19:51:26;12.52;;;8.40;;
67130;SDS011;54051;53.464;49.532;2022-07-17T19:56:19;12.10;;;9.27;;
67130;SDS011;54051;53.464;49.532;2022-07-17T19:58:46;11.45;;;8.35;;
67130;SDS011;54051;53.464;49.532;2022-07-17T20:01:13;10.93;;;7.50;;
67130;SDS011;54051;53.464;49.532;2022-07-17T20:03:40;11.25;;;7.47;;
67130;SDS011;54051;53.464;49.532;2022-07-17T20:06:07;9.73;;;7.45;;
67130;SDS011;54051;53.464;49.532;2022-07-17T20:08:33;11.52;;;7.50;;
67130;SDS011;54051;53.464;49.532;2022-07-17T20:11:00;9.93;;;7.40;;
67130;SDS011;54051;53.464;49.532;2022-07-17T20:13:27;10.95;;;7.32;;
67130;SDS011;54051;53.464;49.532;2022-07-17T20:15:58;12.05;;;6.93;;
67130;SDS011;54051;53.464;49.532;2022-07-17T20:18:28;11.00;;;7.53;;
67130;SDS011;54051;53.464;49.532;2022-07-17T20:20:58;10.15;;;6.47;;
67130;SDS011;54051;53.464;49.532;2022-07-17T20:23:24;10.00;;;6.90;;
67130;SDS011;54051;53.464;49.532;2022-07-17T20:25:50;11.25;;;6.07;;
67130;SDS011;54051;53.464;49.532;2022-07-17T20:28:22;8.23;;;6.45;;
67130;SDS011;54051;53.464;49.532;2022-07-17T20:30:48;9.68;;;6.50;;
67130;SDS011;54051;53.464;49.532;2022-07-17T20:33:14;8.15;;;6.07;;
67130;SDS011;54051;53.464;49.532;2022-07-17T20:35:43;10.68;;;6.45;;
67130;SDS011;54051;53.464;49.532;2022-07-17T20:38:11;10.27;;;6.30;;
67130;SDS011;54051;53.464;49.532;2022-07-17T20:40:38;9.95;;;6.35;;
67130;SDS011;54051;53.464;49.532;2022-07-17T20:43:04;9.02;;;6.10;;
67130;SDS011;54051;53.464;49.532;2022-07-17T20:45:30;9.88;;;6.10;;
67130;SDS011;54051;53.464;49.532;2022-07-17T20:50:23;10.63;;;6.38;;
67130;SDS011;54051;53.464;49.532;2022-07-17T20:52:49;8.35;;;6.18;;
67130;SDS011;54051;53.464;49.532;2022-07-17T20:55:15;12.45;;;6.38;;
67130;SDS011;54051;53.464;49.532;2022-07-17T20:57:41;9.52;;;6.18;;
67130;SDS011;54051;53.464;49.532;2022-07-17T21:00:08;7.90;;;5.72;;
67130;SDS011;54051;53.464;49.532;2022-07-17T21:02:34;7.78;;;6.07;;
67130;SDS011;54051;53.464;49.532;2022-07-17T21:05:00;8.65;;;6.00;;
67130;SDS011;54051;53.464;49.532;2022-07-17T21:07:28;9.40;;;5.97;;
67130;SDS011;54051;53.464;49.532;2022-07-17T21:09:54;8.07;;;5.88;;
67130;SDS011;54051;53.464;49.532;2022-07-17T21:12:20;8.75;;;6.07;;
67130;SDS011;54051;53.464;49.532;2022-07-17T21:14:46;9.45;;;6.65;;
67130;SDS011;54051;53.464;49.532;2022-07-17T21:17:12;9.98;;;6.30;;
67130;SDS011;54051;53.464;49.532;2022-07-17T21:19:38;10.50;;;6.72;;
67130;SDS011;54051;53.464;49.532;2022-07-17T21:22:04;13.25;;;7.10;;
67130;SDS011;54051;53.464;49.532;2022-07-17T21:24:31;11.10;;;6.53;;
67130;SDS011;54051;53.464;49.532;2022-07-17T21:26:57;9.98;;;6.57;;
67130;SDS011;54051;53.464;49.532;2022-07-17T21:31:50;10.23;;;6.97;;
67130;SDS011;54051;53.464;49.532;2022-07-17T21:34:16;8.68;;;6.65;;
67130;SDS011;54051;53.464;49.532;2022-07-17T21:36:42;9.82;;;7.30;;
67130;SDS011;54051;53.464;49.532;2022-07-17T21:39:08;11.70;;;6.97;;
67130;SDS011;54051;53.464;49.532;2022-07-17T21:41:34;10.43;;;7.22;;
67130;SDS011;54051;53.464;49.532;2022-07-17T21:44:00;11.68;;;7.13;;
67130;SDS011;54051;53.464;49.532;2022-07-17T21:46:26;9.32;;;7.47;;
67130;SDS011;54051;53.464;49.532;2022-07-17T21:48:53;12.43;;;7.88;;
67130;SDS011;54051;53.464;49.532;2022-07-17T21:56:11;11.15;;;7.68;;
67130;SDS011;54051;53.464;49.532;2022-07-17T21:58:37;11.75;;;8.02;;
67130;SDS011;54051;53.464;49.532;2022-07-17T22:01:05;12.90;;;8.57;;
67130;SDS011;54051;53.464;49.532;2022-07-17T22:03:33;11.73;;;8.25;;
67130;SDS011;54051;53.464;49.532;2022-07-17T22:05:59;11.05;;;8.23;;
67130;SDS011;54051;53.464;49.532;2022-07-17T22:08:29;11.93;;;8.50;;
67130;SDS011;54051;53.464;49.532;2022-07-17T22:10:56;11.98;;;8.23;;
67130;SDS011;54051;53.464;49.532;2022-07-17T22:13:23;11.60;;;8.20;;
67130;SDS011;54051;53.464;49.532;2022-07-17T22:15:49;11.10;;;8.70;;
67130;SDS011;54051;53.464;49.532;2022-07-17T22:18:15;11.13;;;8.32;;
67130;SDS011;54051;53.464;49.532;2022-07-17T22:20:42;10.88;;;7.93;;
67130;SDS011;54051;53.464;49.532;2022-07-17T22:23:08;11.07;;;9.10;;
67130;SDS011;54051;53.464;49.532;2022-07-17T22:25:34;13.02;;;9.20;;
67130;SDS011;54051;53.464;49.532;2022-07-17T22:28:01;11.48;;;9.23;;
67130;SDS011;54051;53.464;49.532;2022-07-17T22:30:28;14.38;;;8.93;;
67130;SDS011;54051;53.464;49.532;2022-07-17T22:32:54;11.77;;;9.30;;
67130;SDS011;54051;53.464;49.532;2022-07-17T22:35:20;13.43;;;9.93;;
67130;SDS011;54051;53.464;49.532;2022-07-17T22:37:46;14.05;;;10.27;;
67130;SDS011;54051;53.464;49.532;2022-07-17T22:40:12;14.35;;;10.25;;
67130;SDS011;54051;53.464;49.532;2022-07-17T22:42:38;13.95;;;10.25;;
67130;SDS011;54051;53.464;49.532;2022-07-17T22:45:04;13.27;;;10.30;;
67130;SDS011;54051;53.464;49.532;2022-07-17T22:47:31;14.77;;;10.40;;
67130;SDS011;54051;53.464;49.532;2022-07-17T22:49:58;14.18;;;9.65;;
67130;SDS011;54051;53.464;49.532;2022-07-17T22:52:24;13.77;;;10.17;;
67130;SDS011;54051;53.464;49.532;2022-07-17T22:54:50;12.77;;;9.93;;
67130;SDS011;54051;53.464;49.532;2022-07-17T22:57:16;12.97;;;10.17;;
67130;SDS011;54051;53.464;49.532;2022-07-17T22:59:42;13.70;;;9.60;;
67130;SDS011;54051;53.464;49.532;2022-07-17T23:02:09;14.40;;;10.20;;
67130;SDS011;54051;53.464;49.532;2022-07-17T23:04:35;14.00;;;9.80;;
67130;SDS011;54051;53.464;49.532;2022-07-17T23:07:02;13.80;;;10.35;;
67130;SDS011;54051;53.464;49.532;2022-07-17T23:09:28;13.15;;;9.65;;
67130;SDS011;54051;53.464;49.532;2022-07-17T23:11:54;14.73;;;9.68;;
67130;SDS011;54051;53.464;49.532;2022-07-17T23:14:21;12.75;;;9.75;;
67130;SDS011;54051;53.464;49.532;2022-07-17T23:16:47;13.25;;;10.23;;